Lockport, Illinois
Current Conditions -  °F | °C
As of 1:55 PM on Saturday 20 Dec 2014 (Local Time) from KLOT Reporting Station
Overcast Overcast  
Wind Chill: 26°   Ceiling: 7000
Heat Index: 32°   Visibility: 10mi
Dew Point: 25°   Wind: 7mph
Humidity: 73%   Direction: 220°SW
Pressure: 30.24"   Gusts: NA
Location:  41.59°N, 88.05°W
Report Text: KLOT 201955Z AUTO 22006KT 10SM SCT050 OVC070 00/M04 A3024 RMK AO2 T00021041
Loading
Personal Weather Stations






























Interactive Weather Map New forecast layout! Learn more

10-Day Weather Forecast

Advertisements
Track Severe Weather on mobile